createdAt,value
2023-02-11T00:00:58.251Z,102611.09
2023-02-11T00:03:28.226Z,102601.84
2023-02-11T00:06:02.221Z,102604.53
2023-02-11T00:08:32.058Z,102610.88
2023-02-11T00:11:01.870Z,102606.84
2023-02-11T00:13:31.733Z,102610.56
2023-02-11T00:16:10.444Z,102607.09
2023-02-11T00:18:40.671Z,102604.78
2023-02-11T00:21:12.636Z,102605.50
2023-02-11T00:23:42.563Z,102595.59
2023-02-11T00:26:16.007Z,102597.72
2023-02-11T00:28:46.993Z,102600.72
2023-02-11T00:31:21.529Z,102599.00
2023-02-11T00:33:52.146Z,102597.69
2023-02-11T00:36:24.177Z,102589.41
2023-02-11T00:38:55.698Z,102597.63
2023-02-11T00:41:26.598Z,102599.38
2023-02-11T00:43:56.658Z,102597.97
2023-02-11T00:46:29.187Z,102598.03
2023-02-11T00:48:59.181Z,102594.19
2023-02-11T00:51:30.175Z,102596.59
2023-02-11T00:54:00.205Z,102592.09
2023-02-11T00:56:30.233Z,102593.75
2023-02-11T00:59:00.512Z,102585.38
2023-02-11T01:01:33.059Z,102577.69
2023-02-11T01:04:03.039Z,102577.84
2023-02-11T01:06:32.907Z,102565.56
2023-02-11T01:09:02.741Z,102576.22
2023-02-11T01:11:32.730Z,102568.16
2023-02-11T01:14:02.794Z,102565.16
2023-02-11T01:16:35.253Z,102560.06
2023-02-11T01:19:05.140Z,102552.66
2023-02-11T01:21:35.056Z,102559.81
2023-02-11T01:24:05.027Z,102559.03
2023-02-11T01:26:34.986Z,102553.50
2023-02-11T01:29:05.058Z,102547.72
2023-02-11T01:31:37.589Z,102537.22
2023-02-11T01:34:07.548Z,102538.28
2023-02-11T01:36:39.995Z,102552.94
2023-02-11T01:39:10.702Z,102548.06
2023-02-11T01:41:42.072Z,102550.88
2023-02-11T01:44:27.854Z,102550.28
2023-02-11T01:47:00.616Z,102540.66
2023-02-11T01:49:34.142Z,102552.06
2023-02-11T01:52:09.749Z,102544.19
2023-02-11T01:54:58.029Z,102539.28
2023-02-11T01:57:33.687Z,102550.97
2023-02-11T02:00:24.755Z,102529.81
2023-02-11T02:03:03.365Z,102528.38
2023-02-11T02:05:41.573Z,102534.56
2023-02-11T02:08:20.273Z,102528.88
2023-02-11T02:10:56.245Z,102536.84
2023-02-11T02:13:26.550Z,102528.47
2023-02-11T02:15:58.999Z,102533.25
2023-02-11T02:18:45.292Z,102518.94
2023-02-11T02:21:55.430Z,102517.59
2023-02-11T02:25:01.151Z,102513.75
2023-02-11T02:27:51.476Z,102515.94
2023-02-11T02:30:50.856Z,102517.75
2023-02-11T02:33:40.108Z,102517.09
2023-02-11T02:36:21.100Z,102516.66
2023-02-11T02:38:58.371Z,102518.50
2023-02-11T02:41:33.790Z,102504.22
2023-02-11T02:44:04.498Z,102509.53
2023-02-11T02:46:37.106Z,102510.34
2023-02-11T02:49:15.083Z,102502.13
2023-02-11T02:52:09.843Z,102485.06
2023-02-11T02:55:08.778Z,102472.19
2023-02-11T02:57:57.484Z,102470.44
2023-02-11T03:00:36.174Z,102477.47
2023-02-11T03:03:22.599Z,102491.25
2023-02-11T03:06:04.393Z,102492.19
2023-02-11T03:08:41.604Z,102483.72
2023-02-11T03:11:14.613Z,102477.38
2023-02-11T03:13:47.406Z,102492.94
2023-02-11T03:16:22.388Z,102480.47
2023-02-11T03:18:55.468Z,102489.66
2023-02-11T03:21:28.797Z,102489.09
2023-02-11T03:24:05.595Z,102476.69
2023-02-11T03:26:43.215Z,102466.31
2023-02-11T03:29:21.793Z,102463.97
2023-02-11T03:32:02.321Z,102451.78
2023-02-11T03:34:41.068Z,102461.66
2023-02-11T03:37:20.613Z,102457.41
2023-02-11T03:39:57.387Z,102459.91
2023-02-11T03:42:36.007Z,102465.03
2023-02-11T03:45:11.981Z,102456.88
2023-02-11T03:47:48.848Z,102455.09
2023-02-11T03:50:21.559Z,102458.22
2023-02-11T03:52:55.200Z,102480.03
2023-02-11T03:55:28.373Z,102473.00
2023-02-11T03:57:58.781Z,102476.34
2023-02-11T04:00:33.959Z,102465.59
2023-02-11T04:03:03.923Z,102469.59
2023-02-11T04:05:34.099Z,102484.25
2023-02-11T04:08:07.664Z,102487.25
2023-02-11T04:10:37.486Z,102482.84
2023-02-11T04:13:07.444Z,102478.78
2023-02-11T04:15:37.355Z,102472.25
2023-02-11T04:18:07.590Z,102464.84
2023-02-11T04:20:37.449Z,102464.56
2023-02-11T04:23:10.249Z,102454.16
2023-02-11T04:25:40.149Z,102454.59
2023-02-11T04:28:10.102Z,102464.78
2023-02-11T04:30:40.031Z,102461.66
2023-02-11T04:33:09.942Z,102468.72
2023-02-11T04:35:39.748Z,102459.34
2023-02-11T04:38:12.199Z,102467.28
2023-02-11T04:40:42.567Z,102450.59
2023-02-11T04:43:12.542Z,102465.25
2023-02-11T04:45:42.440Z,102474.72
2023-02-11T04:48:12.368Z,102464.84
2023-02-11T04:50:42.208Z,102456.88
2023-02-11T04:53:14.695Z,102447.38
2023-02-11T04:55:44.552Z,102440.56
2023-02-11T04:58:14.407Z,102427.81
2023-02-11T05:00:44.339Z,102418.53
2023-02-11T05:03:14.288Z,102418.25
2023-02-11T05:05:44.905Z,102420.84
2023-02-11T05:08:17.420Z,102427.09
2023-02-11T05:10:49.916Z,102412.28
2023-02-11T05:13:19.790Z,102410.34
2023-02-11T05:15:50.136Z,102390.44
2023-02-11T05:18:20.176Z,102399.81
2023-02-11T05:20:50.064Z,102395.81
2023-02-11T05:23:22.562Z,102396.00
2023-02-11T05:25:52.670Z,102394.94
2023-02-11T05:28:22.667Z,102395.47
2023-02-11T05:30:52.522Z,102398.03
2023-02-11T05:33:22.840Z,102400.69
2023-02-11T05:35:52.949Z,102401.38
2023-02-11T05:38:25.859Z,102393.03
2023-02-11T05:40:55.822Z,102406.28
2023-02-11T05:43:25.951Z,102415.91
2023-02-11T05:45:55.912Z,102420.41
2023-02-11T05:48:25.905Z,102419.16
2023-02-11T05:50:55.681Z,102412.41
2023-02-11T05:53:28.599Z,102415.28
2023-02-11T05:55:58.442Z,102417.66
2023-02-11T05:58:28.280Z,102431.38
2023-02-11T06:00:58.131Z,102433.41
2023-02-11T06:03:28.021Z,102419.88
2023-02-11T06:05:57.916Z,102443.38
2023-02-11T06:08:30.855Z,102446.81
2023-02-11T06:11:00.687Z,102439.22
2023-02-11T06:13:30.562Z,102435.72
2023-02-11T06:16:00.878Z,102439.47
2023-02-11T06:18:32.182Z,102440.31
2023-02-11T06:21:02.345Z,102443.94
2023-02-11T06:23:34.807Z,102445.63
2023-02-11T06:26:06.466Z,102444.19
2023-02-11T06:28:39.316Z,102433.44
2023-02-11T06:31:11.909Z,102431.50
2023-02-11T06:33:42.379Z,102434.53
2023-02-11T06:36:18.302Z,102426.56
2023-02-11T06:38:51.760Z,102430.03
2023-02-11T06:41:22.814Z,102427.13
2023-02-11T06:43:52.954Z,102436.66
2023-02-11T06:46:23.145Z,102436.69
2023-02-11T06:48:53.062Z,102436.88
2023-02-11T06:51:22.948Z,102434.81
2023-02-11T06:53:55.469Z,102425.69
2023-02-11T06:56:27.489Z,102433.63
2023-02-11T06:58:58.209Z,102432.75
2023-02-11T07:01:30.815Z,102442.38
2023-02-11T07:04:00.658Z,102436.97
2023-02-11T07:06:30.598Z,102425.13
2023-02-11T07:09:03.100Z,102428.00
2023-02-11T07:11:34.252Z,102422.09
2023-02-11T07:14:08.399Z,102440.81
2023-02-11T07:16:39.027Z,102449.28
2023-02-11T07:19:08.927Z,102450.16
2023-02-11T07:21:38.817Z,102456.69
2023-02-11T07:24:13.309Z,102449.84
2023-02-11T07:26:44.689Z,102465.03
2023-02-11T07:29:14.556Z,102483.69
2023-02-11T07:31:44.577Z,102487.09
2023-02-11T07:34:14.518Z,102501.41
2023-02-11T07:36:45.219Z,102505.06
2023-02-11T07:39:18.005Z,102480.56
2023-02-11T07:41:49.334Z,102482.72
2023-02-11T07:44:20.027Z,102493.94
2023-02-11T07:46:50.867Z,102492.91
2023-02-11T07:49:20.774Z,102492.28
2023-02-11T07:51:51.451Z,102492.13
2023-02-11T07:54:24.115Z,102489.94
2023-02-11T07:56:54.064Z,102482.41
2023-02-11T07:59:24.948Z,102460.91
2023-02-11T08:01:54.835Z,102475.31
2023-02-11T08:04:24.682Z,102471.16
2023-02-11T08:06:59.038Z,102464.72
2023-02-11T08:09:34.350Z,102472.00
2023-02-11T08:12:04.418Z,102465.53
2023-02-11T08:14:34.906Z,102456.69
2023-02-11T08:17:04.746Z,102457.09
2023-02-11T08:19:35.312Z,102460.13
2023-02-11T08:22:05.264Z,102453.47
2023-02-11T08:24:37.729Z,102442.81
2023-02-11T08:27:07.580Z,102443.94
2023-02-11T08:29:37.505Z,102441.06
2023-02-11T08:32:07.626Z,102437.63
2023-02-11T08:34:37.899Z,102438.78
2023-02-11T08:37:09.067Z,102443.03
2023-02-11T08:39:41.508Z,102444.28
2023-02-11T08:42:11.415Z,102454.84
2023-02-11T08:44:41.285Z,102454.94
2023-02-11T08:47:11.157Z,102456.06
2023-02-11T08:49:42.395Z,102451.00
2023-02-11T08:52:12.263Z,102452.63
2023-02-11T08:54:44.757Z,102457.50
2023-02-11T08:57:14.869Z,102452.25
2023-02-11T08:59:44.730Z,102448.97
2023-02-11T09:02:16.794Z,102446.56
2023-02-11T09:04:46.674Z,102445.28
2023-02-11T09:07:16.521Z,102442.97
2023-02-11T09:09:48.947Z,102455.16
2023-02-11T09:12:18.912Z,102444.66
2023-02-11T09:14:48.938Z,102445.41
2023-02-11T09:17:18.823Z,102436.50
2023-02-11T09:19:48.670Z,102433.69
2023-02-11T09:22:18.521Z,102432.00
2023-02-11T09:24:50.981Z,102436.88
2023-02-11T09:27:22.833Z,102439.50
2023-02-11T09:29:53.647Z,102441.22
2023-02-11T09:32:23.513Z,102437.63
2023-02-11T09:34:53.580Z,102430.88
2023-02-11T09:37:23.448Z,102426.13
2023-02-11T09:39:56.085Z,102423.97
2023-02-11T09:42:46.631Z,102428.19
2023-02-11T09:45:22.242Z,102436.06
2023-02-11T09:47:58.387Z,102438.31
2023-02-11T09:50:33.568Z,102442.28
2023-02-11T09:53:07.668Z,102448.09
2023-02-11T09:55:44.676Z,102460.09
2023-02-11T09:58:17.511Z,102465.78
2023-02-11T10:00:55.413Z,102458.72
2023-02-11T10:03:47.367Z,102467.53
2023-02-11T10:06:36.844Z,102472.16
2023-02-11T10:09:30.989Z,102479.63
2023-02-11T10:12:18.947Z,102477.38
2023-02-11T10:15:04.447Z,102478.25
2023-02-11T10:17:47.484Z,102478.53
2023-02-11T10:20:28.223Z,102464.94
2023-02-11T10:23:03.391Z,102451.22
2023-02-11T10:25:39.767Z,102449.31
2023-02-11T10:28:19.438Z,102452.75
2023-02-11T10:31:00.367Z,102446.00
2023-02-11T10:33:37.589Z,102450.81
2023-02-11T10:36:08.935Z,102455.03
2023-02-11T10:38:39.781Z,102446.47
2023-02-11T10:41:09.756Z,102442.38
2023-02-11T10:43:45.871Z,102434.69
2023-02-11T10:46:21.267Z,102430.75
2023-02-11T10:48:53.882Z,102438.28
2023-02-11T10:51:26.699Z,102424.63
2023-02-11T10:54:21.372Z,102431.72
2023-02-11T10:56:54.338Z,102418.78
2023-02-11T10:59:32.081Z,102412.41
2023-02-11T11:02:04.927Z,102404.53
2023-02-11T11:04:43.075Z,102403.09
2023-02-11T11:07:18.127Z,102402.38
2023-02-11T11:09:52.496Z,102387.34
2023-02-11T11:12:35.387Z,102400.91
2023-02-11T11:15:21.863Z,102414.91
2023-02-11T11:17:52.456Z,102412.41
2023-02-11T11:20:27.517Z,102415.78
2023-02-11T11:23:16.921Z,102405.56
2023-02-11T11:25:49.251Z,102391.69
2023-02-11T11:28:26.950Z,102391.41
2023-02-11T11:31:02.322Z,102386.50
2023-02-11T11:33:36.075Z,102390.50
2023-02-11T11:36:12.747Z,102386.38
2023-02-11T11:38:51.044Z,102386.66
2023-02-11T11:41:28.603Z,102370.94
2023-02-11T11:44:01.291Z,102362.06
2023-02-11T11:46:36.724Z,102367.44
2023-02-11T11:49:28.082Z,102385.06
2023-02-11T11:52:12.649Z,102378.13
2023-02-11T11:54:49.134Z,102364.00
2023-02-11T11:57:24.935Z,102382.03
2023-02-11T11:59:55.163Z,102374.69
2023-02-11T12:02:54.477Z,102369.41
2023-02-11T12:05:30.795Z,102364.00
2023-02-11T12:08:16.639Z,102374.59
2023-02-11T12:11:08.481Z,102359.97
2023-02-11T12:13:52.209Z,102353.38
2023-02-11T12:16:36.545Z,102350.69
2023-02-11T12:19:42.578Z,102355.34
2023-02-11T12:22:27.156Z,102354.44
2023-02-11T12:25:12.536Z,102340.81
2023-02-11T12:27:57.516Z,102342.69
2023-02-11T12:30:52.721Z,102352.94
2023-02-11T12:33:41.980Z,102336.53
2023-02-11T12:36:29.751Z,102337.88
2023-02-11T12:39:22.233Z,102344.13
2023-02-11T12:42:36.962Z,102342.75
2023-02-11T12:45:34.206Z,102342.22
2023-02-11T12:48:22.896Z,102340.63
2023-02-11T12:51:02.474Z,102355.25
2023-02-11T12:53:58.294Z,102364.25
2023-02-11T12:56:39.696Z,102355.53
2023-02-11T12:59:20.552Z,102336.19
2023-02-11T13:01:54.956Z,102328.78
2023-02-11T13:04:32.191Z,102329.03
2023-02-11T13:07:08.470Z,102346.50
2023-02-11T13:09:48.255Z,102326.53
2023-02-11T13:12:32.513Z,102335.94
2023-02-11T13:15:09.391Z,102336.13
2023-02-11T13:17:47.717Z,102332.88
2023-02-11T13:20:29.082Z,102315.56
2023-02-11T13:23:10.473Z,102322.00
2023-02-11T13:25:50.148Z,102317.28
2023-02-11T13:28:40.268Z,102313.25
2023-02-11T13:31:16.245Z,102301.34
2023-02-11T13:33:49.544Z,102304.81
2023-02-11T13:36:26.017Z,102300.25
2023-02-11T13:39:00.513Z,102300.06
2023-02-11T13:41:37.181Z,102307.69
2023-02-11T13:44:22.854Z,102299.53
2023-02-11T13:46:57.411Z,102307.41
2023-02-11T13:49:32.647Z,102309.97
2023-02-11T13:52:06.115Z,102299.22
2023-02-11T13:54:40.159Z,102316.09
2023-02-11T13:57:33.551Z,102306.97
2023-02-11T14:00:06.828Z,102293.31
2023-02-11T14:02:52.343Z,102298.13
2023-02-11T14:05:46.431Z,102299.72
2023-02-11T14:08:39.394Z,102299.22
2023-02-11T14:11:14.762Z,102295.19
2023-02-11T14:14:24.013Z,102308.50
2023-02-11T14:17:23.804Z,102303.25
2023-02-11T14:19:56.573Z,102310.34
2023-02-11T14:22:30.130Z,102309.16
2023-02-11T14:25:04.359Z,102303.00
2023-02-11T14:27:45.006Z,102287.66
2023-02-11T14:30:43.739Z,102286.69
2023-02-11T14:33:35.206Z,102284.19
2023-02-11T14:36:21.785Z,102290.50
2023-02-11T14:39:06.791Z,102305.16
2023-02-11T14:41:44.185Z,102305.78
2023-02-11T14:44:22.199Z,102306.44
2023-02-11T14:46:54.922Z,102301.88
2023-02-11T14:49:30.392Z,102306.44
2023-02-11T14:52:10.056Z,102303.09
2023-02-11T14:54:40.323Z,102316.00
2023-02-11T14:57:14.182Z,102309.25
2023-02-11T14:59:59.086Z,102309.94
2023-02-11T15:02:33.275Z,102315.59
2023-02-11T15:05:24.314Z,102309.81
2023-02-11T15:08:00.850Z,102327.31
2023-02-11T15:10:35.755Z,102334.31
2023-02-11T15:13:08.232Z,102331.97
2023-02-11T15:15:42.584Z,102332.13
2023-02-11T15:18:25.755Z,102331.53
2023-02-11T15:20:56.059Z,102330.13
2023-02-11T15:23:32.224Z,102331.41
2023-02-11T15:26:05.657Z,102336.38
2023-02-11T15:28:37.887Z,102340.25
2023-02-11T15:31:16.397Z,102346.31
2023-02-11T15:33:46.423Z,102344.44
2023-02-11T15:36:19.065Z,102342.22
2023-02-11T15:39:21.441Z,102336.25
2023-02-11T15:41:51.338Z,102341.13
2023-02-11T15:44:32.093Z,102346.66
2023-02-11T15:47:02.519Z,102341.25
2023-02-11T15:49:33.406Z,102351.63
2023-02-11T15:52:03.407Z,102350.63
2023-02-11T15:54:35.853Z,102356.31
2023-02-11T15:57:10.467Z,102347.00
2023-02-11T15:59:43.883Z,102355.66
2023-02-11T16:02:21.984Z,102353.94
2023-02-11T16:04:59.082Z,102352.91
2023-02-11T16:07:46.082Z,102363.19
2023-02-11T16:10:30.932Z,102355.38
2023-02-11T16:13:20.213Z,102364.00
2023-02-11T16:15:55.542Z,102373.31
2023-02-11T16:18:38.255Z,102370.06
2023-02-11T16:21:17.284Z,102369.41
2023-02-11T16:23:55.363Z,102363.84
2023-02-11T16:26:33.067Z,102365.22
2023-02-11T16:29:15.617Z,102366.94
2023-02-11T16:31:48.161Z,102372.09
2023-02-11T16:34:20.654Z,102380.13
2023-02-11T16:36:52.560Z,102374.44
2023-02-11T16:39:25.269Z,102384.16
2023-02-11T16:41:58.447Z,102384.34
2023-02-11T16:44:28.518Z,102387.78
2023-02-11T16:47:03.378Z,102386.06
2023-02-11T16:49:37.345Z,102383.59
2023-02-11T16:52:11.078Z,102387.34
2023-02-11T16:54:40.969Z,102389.84
2023-02-11T16:57:18.029Z,102386.63
2023-02-11T16:59:49.144Z,102384.56
2023-02-11T17:02:25.246Z,102392.34
2023-02-11T17:04:56.561Z,102396.44
2023-02-11T17:07:26.491Z,102399.13
2023-02-11T17:09:56.563Z,102398.38
2023-02-11T17:12:29.056Z,102397.06
2023-02-11T17:14:58.992Z,102385.66
2023-02-11T17:17:30.058Z,102396.41
2023-02-11T17:19:59.954Z,102399.88
2023-02-11T17:22:30.070Z,102408.28
2023-02-11T17:25:00.185Z,102405.06
2023-02-11T17:27:32.844Z,102411.94
2023-02-11T17:30:02.973Z,102406.13
2023-02-11T17:32:32.970Z,102402.84
2023-02-11T17:35:03.226Z,102402.31
2023-02-11T17:37:33.150Z,102405.22
2023-02-11T17:40:03.079Z,102409.53
2023-02-11T17:42:35.885Z,102404.25
2023-02-11T17:45:06.181Z,102404.78
2023-02-11T17:47:36.141Z,102408.16
2023-02-11T17:50:06.742Z,102405.13
2023-02-11T17:52:36.770Z,102418.06
2023-02-11T17:55:08.261Z,102420.53
2023-02-11T17:57:41.257Z,102419.22
2023-02-11T18:00:12.786Z,102416.88
2023-02-11T18:02:42.997Z,102411.69
2023-02-11T18:05:13.248Z,102413.00
2023-02-11T18:07:43.195Z,102422.91
2023-02-11T18:10:13.762Z,102423.56
2023-02-11T18:12:46.282Z,102421.84
2023-02-11T18:15:16.133Z,102415.78
2023-02-11T18:17:46.057Z,102429.78
2023-02-11T18:20:16.387Z,102426.13
2023-02-11T18:22:46.410Z,102435.13
2023-02-11T18:25:18.858Z,102430.63
2023-02-11T18:27:51.369Z,102427.81
2023-02-11T18:30:22.474Z,102432.78
2023-02-11T18:32:57.300Z,102429.94
2023-02-11T18:35:27.199Z,102439.00
2023-02-11T18:37:57.108Z,102441.22
2023-02-11T18:40:27.135Z,102445.00
2023-02-11T18:43:00.026Z,102445.03
2023-02-11T18:45:31.601Z,102443.19
2023-02-11T18:48:05.308Z,102449.22
2023-02-11T18:50:35.273Z,102443.53
2023-02-11T18:53:05.261Z,102445.44
2023-02-11T18:55:35.713Z,102448.16
2023-02-11T18:58:08.370Z,102450.16
2023-02-11T19:00:41.302Z,102459.53
2023-02-11T19:03:11.451Z,102458.50
2023-02-11T19:05:44.769Z,102454.41
2023-02-11T19:08:14.998Z,102453.19
2023-02-11T19:10:47.106Z,102447.63
2023-02-11T19:13:19.564Z,102450.41
2023-02-11T19:15:50.473Z,102445.66
2023-02-11T19:18:20.489Z,102443.28
2023-02-11T19:20:50.350Z,102453.31
2023-02-11T19:23:20.235Z,102442.22
2023-02-11T19:25:51.928Z,102446.44
2023-02-11T19:28:24.540Z,102436.75
2023-02-11T19:30:54.536Z,102440.72
2023-02-11T19:33:24.492Z,102445.91
2023-02-11T19:35:54.367Z,102444.03
2023-02-11T19:38:24.274Z,102450.19
2023-02-11T19:40:58.909Z,102452.97
2023-02-11T19:43:31.491Z,102447.81
2023-02-11T19:46:03.847Z,102444.22
2023-02-11T19:48:33.939Z,102441.66
2023-02-11T19:51:13.027Z,102432.44
2023-02-11T19:53:43.158Z,102422.91
2023-02-11T19:56:13.395Z,102427.41
2023-02-11T19:58:46.262Z,102429.59
2023-02-11T20:01:18.846Z,102435.97
2023-02-11T20:03:52.616Z,102434.28
2023-02-11T20:06:26.362Z,102438.00
2023-02-11T20:08:58.935Z,102435.69
2023-02-11T20:11:30.832Z,102434.69
2023-02-11T20:14:03.602Z,102429.72
2023-02-11T20:16:47.518Z,102441.94
2023-02-11T20:19:18.469Z,102442.41
2023-02-11T20:21:50.631Z,102437.34
2023-02-11T20:24:21.833Z,102432.22
2023-02-11T20:26:55.625Z,102426.66
2023-02-11T20:29:31.220Z,102433.75
2023-02-11T20:32:01.277Z,102426.66
2023-02-11T20:34:31.162Z,102434.88
2023-02-11T20:37:02.272Z,102433.81
2023-02-11T20:39:32.141Z,102441.47
2023-02-11T20:42:02.110Z,102446.53
2023-02-11T20:44:36.761Z,102446.44
2023-02-11T20:47:06.973Z,102459.88
2023-02-11T20:49:36.918Z,102455.06
2023-02-11T20:52:08.275Z,102449.63
2023-02-11T20:54:38.168Z,102443.75
2023-02-11T20:57:08.053Z,102447.91
2023-02-11T20:59:40.600Z,102456.66
2023-02-11T21:02:13.360Z,102457.63
2023-02-11T21:04:43.345Z,102461.25
2023-02-11T21:07:13.241Z,102450.00
2023-02-11T21:09:43.124Z,102456.44
2023-02-11T21:12:13.215Z,102456.97
2023-02-11T21:14:45.725Z,102454.50
2023-02-11T21:17:15.714Z,102452.00
2023-02-11T21:19:45.718Z,102448.97
2023-02-11T21:22:15.690Z,102444.34
2023-02-11T21:24:45.582Z,102442.50
2023-02-11T21:27:16.180Z,102451.91
2023-02-11T21:29:54.173Z,102453.06
2023-02-11T21:32:24.670Z,102457.13
2023-02-11T21:34:54.702Z,102459.03
2023-02-11T21:37:25.473Z,102461.72
2023-02-11T21:39:55.296Z,102462.13
2023-02-11T21:42:25.209Z,102451.56
2023-02-11T21:44:57.674Z,102446.59
2023-02-11T21:47:27.695Z,102451.31
2023-02-11T21:49:57.540Z,102459.28
2023-02-11T21:52:27.573Z,102451.78
2023-02-11T21:54:57.465Z,102458.13
2023-02-11T21:57:27.466Z,102447.84
2023-02-11T22:00:00.034Z,102465.41
2023-02-11T22:02:29.978Z,102466.75
2023-02-11T22:04:59.995Z,102467.53
2023-02-11T22:07:30.046Z,102452.75
2023-02-11T22:09:59.957Z,102454.09
2023-02-11T22:12:29.916Z,102465.72
2023-02-11T22:15:02.374Z,102467.34
2023-02-11T22:17:32.525Z,102474.16
2023-02-11T22:20:05.023Z,102468.88
2023-02-11T22:22:35.388Z,102472.91
2023-02-11T22:25:05.457Z,102470.91
2023-02-11T22:27:35.396Z,102477.72
2023-02-11T22:30:09.321Z,102489.03
2023-02-11T22:32:39.362Z,102485.78
2023-02-11T22:35:09.683Z,102490.53
2023-02-11T22:37:39.606Z,102488.47
2023-02-11T22:40:11.080Z,102482.59
2023-02-11T22:42:40.943Z,102496.78
2023-02-11T22:45:13.740Z,102500.34
2023-02-11T22:47:43.782Z,102490.28
2023-02-11T22:50:14.496Z,102495.91
2023-02-11T22:52:44.405Z,102480.66
2023-02-11T22:55:14.232Z,102488.63
2023-02-11T22:57:44.224Z,102489.97
2023-02-11T23:00:18.499Z,102489.50
2023-02-11T23:02:50.170Z,102484.59
2023-02-11T23:05:20.329Z,102489.03
2023-02-11T23:07:50.286Z,102478.94
2023-02-11T23:10:20.683Z,102486.63
2023-02-11T23:12:50.639Z,102487.78
2023-02-11T23:15:23.131Z,102497.47
2023-02-11T23:17:53.122Z,102506.31
2023-02-11T23:20:23.232Z,102497.25
2023-02-11T23:22:53.191Z,102489.41
2023-02-11T23:25:23.047Z,102488.25
2023-02-11T23:27:52.860Z,102488.72
2023-02-11T23:30:25.652Z,102486.53
2023-02-11T23:32:55.803Z,102491.31
2023-02-11T23:35:27.464Z,102497.56
2023-02-11T23:37:57.470Z,102493.94
2023-02-11T23:40:27.414Z,102485.56
2023-02-11T23:42:57.338Z,102485.97
2023-02-11T23:45:29.860Z,102495.44
2023-02-11T23:47:59.696Z,102492.09
2023-02-11T23:50:29.645Z,102490.06
2023-02-11T23:52:59.501Z,102486.25
2023-02-11T23:55:29.393Z,102499.47
2023-02-11T23:57:59.354Z,102494.56
